Time;durP1;ratioP1;P1;durP2;ratioP2;P2;SDS_P1;SDS_P2;PMS_P1;PMS_P2;Temp;Humidity;BMP_temperature;BMP_pressure;BME280_temperature;BME280_humidity;BME280_pressure;Samples;Min_cycle;Max_cycle;Signal;HPM_P1;HPM_P2
2022/05/26 00:02:00;;;;;;;6.63;1.77;;;18.80;63.70;;;;;;7387037;19;19939;-77
2022/05/26 00:04:29;;;;;;;5.18;1.50;;;18.80;63.60;;;;;;7368884;19;20011;-77
2022/05/26 00:06:58;;;;;;;7.40;1.90;;;18.80;63.60;;;;;;7367656;19;20017;-77
2022/05/26 00:09:27;;;;;;;3.65;1.40;;;18.80;63.60;;;;;;7369016;19;20029;-77
2022/05/26 00:11:56;;;;;;;3.63;1.40;;;18.80;63.60;;;;;;7366191;19;20090;-78
2022/05/26 00:14:27;;;;;;;7.80;1.88;;;18.80;63.50;;;;;;7389171;19;20038;-77
2022/05/26 00:16:56;;;;;;;6.53;1.60;;;18.80;63.20;;;;;;7368547;19;20069;-77
2022/05/26 00:19:25;;;;;;;7.22;1.65;;;18.80;63.30;;;;;;7365350;19;20018;-77
2022/05/26 00:21:54;;;;;;;6.07;1.52;;;18.80;63.30;;;;;;7369045;19;20102;-77
2022/05/26 00:24:28;;;;;;;8.30;2.05;;;18.80;63.10;;;;;;7368213;19;20010;-77
2022/05/26 00:26:57;;;;;;;3.55;1.42;;;18.80;62.90;;;;;;7367195;19;20010;-77
2022/05/26 00:29:28;;;;;;;7.93;1.90;;;18.80;62.90;;;;;;7392519;19;20098;-77
2022/05/26 00:31:57;;;;;;;6.18;1.83;;;18.80;63.00;;;;;;7370412;19;20018;-77
2022/05/26 00:34:26;;;;;;;5.28;1.80;;;18.80;62.90;;;;;;7368884;19;20021;-78
2022/05/26 00:36:54;;;;;;;8.63;2.05;;;18.90;63.00;;;;;;7368136;19;20014;-77
2022/05/26 00:39:25;;;;;;;7.43;1.80;;;18.90;62.70;;;;;;7370068;19;20031;-77
2022/05/26 00:41:56;;;;;;;8.55;2.03;;;19.00;62.60;;;;;;7374279;19;20025;-77
2022/05/26 00:44:28;;;;;;;3.28;1.35;;;18.80;62.50;;;;;;7398376;19;20502;-76
2022/05/26 00:46:59;;;;;;;5.93;1.90;;;18.90;62.60;;;;;;7375486;19;20035;-77
2022/05/26 00:49:33;;;;;;;7.72;1.58;;;18.90;62.60;;;;;;7378124;19;20018;-77
2022/05/26 00:52:02;;;;;;;4.28;1.50;;;18.80;62.60;;;;;;7377633;19;20085;-77
2022/05/26 00:54:32;;;;;;;8.38;1.80;;;18.80;62.70;;;;;;7376248;19;20027;-77
2022/05/26 00:57:05;;;;;;;6.70;1.67;;;18.70;62.80;;;;;;7377040;19;20422;-77
2022/05/26 00:59:43;;;;;;;6.50;1.63;;;18.70;62.90;;;;;;7377509;19;20514;-77
2022/05/26 01:02:14;;;;;;;8.48;1.95;;;18.70;63.20;;;;;;7397316;19;20027;-76
2022/05/26 01:04:52;;;;;;;13.75;2.20;;;18.60;63.50;;;;;;7374987;19;20038;-77
2022/05/26 01:07:25;;;;;;;8.52;1.88;;;18.60;63.60;;;;;;7375141;19;20019;-77
2022/05/26 01:09:54;;;;;;;5.65;2.05;;;18.60;63.60;;;;;;7375098;19;20018;-77
2022/05/26 01:12:22;;;;;;;10.07;2.10;;;18.60;63.70;;;;;;7374171;19;20031;-77
2022/05/26 01:15:02;;;;;;;9.88;1.95;;;18.60;63.80;;;;;;7373976;19;20038;-77
2022/05/26 01:17:41;;;;;;;6.18;1.70;;;18.60;63.80;;;;;;7375617;19;20014;-77
2022/05/26 01:20:36;;;;;;;6.05;1.80;;;18.60;63.70;;;;;;7394352;19;20378;-76
2022/05/26 01:23:45;;;;;;;7.57;1.70;;;18.60;63.60;;;;;;7373459;19;20330;-77
2022/05/26 01:26:53;;;;;;;4.13;1.20;;;18.50;63.60;;;;;;7373207;19;20085;-77
2022/05/26 01:29:51;;;;;;;6.15;1.50;;;18.50;63.60;;;;;;7370632;19;20086;-77
2022/05/26 01:32:29;;;;;;;7.03;1.73;;;18.50;63.80;;;;;;7373718;19;20078;-77
2022/05/26 01:35:04;;;;;;;6.53;2.08;;;18.40;63.80;;;;;;7374437;19;20573;-77
2022/05/26 01:37:42;;;;;;;10.98;1.63;;;18.40;63.60;;;;;;7374233;19;20027;-77
2022/05/26 01:40:22;;;;;;;5.93;1.88;;;18.30;63.60;;;;;;7372493;19;20089;-77
2022/05/26 01:43:00;;;;;;;6.47;1.67;;;18.40;63.60;;;;;;7373623;19;20652;-77
2022/05/26 01:45:40;;;;;;;7.07;1.60;;;18.40;63.40;;;;;;7373125;19;20094;-77
2022/05/26 01:48:16;;;;;;;7.50;1.83;;;18.40;63.20;;;;;;7371639;19;20344;-77
2022/05/26 01:50:49;;;;;;;6.28;1.50;;;18.40;63.00;;;;;;7374472;19;20029;-77
2022/05/26 01:53:31;;;;;;;4.45;1.42;;;18.40;62.90;;;;;;7391885;19;20474;-77
2022/05/26 01:56:07;;;;;;;7.38;1.38;;;18.40;62.80;;;;;;7371892;19;20102;-78
2022/05/26 01:58:40;;;;;;;5.32;1.30;;;18.40;62.70;;;;;;7373752;19;20511;-77
2022/05/26 02:01:13;;;;;;;5.03;1.40;;;18.40;62.60;;;;;;7372012;19;20028;-78
2022/05/26 02:03:48;;;;;;;3.85;1.40;;;18.50;63.30;;;;;;7371738;19;20119;-77
2022/05/26 02:06:23;;;;;;;5.57;1.67;;;18.50;62.40;;;;;;7373796;19;20031;-77
2022/05/26 02:08:57;;;;;;;5.38;1.50;;;18.60;62.20;;;;;;7374102;19;20011;-78
2022/05/26 02:11:27;;;;;;;7.82;2.00;;;18.60;62.00;;;;;;7395570;19;20082;-77
2022/05/26 02:14:00;;;;;;;6.25;1.83;;;18.60;61.90;;;;;;7374776;19;20018;-77
2022/05/26 02:16:36;;;;;;;4.82;1.45;;;18.60;62.00;;;;;;7373028;19;20086;-78
2022/05/26 02:19:12;;;;;;;7.00;1.48;;;18.50;61.90;;;;;;7371024;19;20723;-77
2022/05/26 02:21:46;;;;;;;5.68;1.55;;;18.50;62.20;;;;;;7371725;19;20109;-77
2022/05/26 02:24:20;;;;;;;5.85;1.55;;;18.50;62.00;;;;;;7371922;19;20010;-77
2022/05/26 02:26:49;;;;;;;5.82;1.65;;;18.50;61.90;;;;;;7373084;19;20400;-77
2022/05/26 02:32:00;;;;;;;4.75;1.40;;;18.60;61.80;;;;;;7373182;19;20038;-77
2022/05/26 02:34:32;;;;;;;5.53;1.88;;;18.60;61.90;;;;;;7370830;19;20024;-78
2022/05/26 02:37:02;;;;;;;9.55;1.88;;;18.50;61.80;;;;;;7372219;19;20090;-77
2022/05/26 02:39:31;;;;;;;12.68;2.10;;;18.50;61.90;;;;;;7371445;19;20098;-77
2022/05/26 02:42:00;;;;;;;6.38;1.70;;;18.40;62.00;;;;;;7372156;19;20119;-77
2022/05/26 02:44:33;;;;;;;7.70;1.70;;;18.30;62.30;;;;;;7385069;19;20090;-78
2022/05/26 02:47:15;;;;;;;7.57;1.75;;;18.30;62.60;;;;;;7393469;19;20090;-77
2022/05/26 02:50:00;;;;;;;8.52;1.60;;;18.20;62.70;;;;;;7370919;19;20031;-77
2022/05/26 02:52:36;;;;;;;5.45;1.50;;;18.30;62.70;;;;;;7371073;19;20034;-77
2022/05/26 02:55:16;;;;;;;8.82;1.58;;;18.30;62.70;;;;;;7370887;19;20023;-77
2022/05/26 02:57:54;;;;;;;9.75;1.55;;;18.30;62.60;;;;;;7371124;19;20031;-77
2022/05/26 03:00:36;;;;;;;10.27;1.80;;;18.30;62.70;;;;;;7369376;19;20074;-78
2022/05/26 03:03:11;;;;;;;4.53;1.17;;;18.30;62.70;;;;;;7371573;19;20019;-78
2022/05/26 03:05:51;;;;;;;8.57;1.85;;;18.20;62.70;;;;;;7370066;19;20074;-78
2022/05/26 03:08:23;;;;;;;8.05;1.77;;;18.20;62.90;;;;;;7391594;19;20035;-78
2022/05/26 03:10:55;;;;;;;8.27;1.50;;;18.30;62.90;;;;;;7371533;19;20010;-78
2022/05/26 03:13:24;;;;;;;7.68;2.00;;;18.30;62.70;;;;;;7368588;19;20027;-78
2022/05/26 03:15:54;;;;;;;8.23;1.73;;;18.30;62.90;;;;;;7370313;19;20078;-78
2022/05/26 03:18:23;;;;;;;7.63;1.90;;;18.30;62.90;;;;;;7367407;19;20014;-78
2022/05/26 03:20:54;;;;;;;5.65;1.40;;;18.30;62.90;;;;;;7370979;19;20102;-77
2022/05/26 03:23:23;;;;;;;7.70;1.40;;;18.20;63.00;;;;;;7393278;19;20384;-78
2022/05/26 03:25:51;;;;;;;5.80;1.50;;;18.10;63.30;;;;;;7371267;19;20106;-78
2022/05/26 03:28:20;;;;;;;6.40;1.75;;;18.20;63.20;;;;;;7369626;19;20336;-78
2022/05/26 03:30:49;;;;;;;12.52;1.92;;;18.20;63.10;;;;;;7369178;19;20541;-78
2022/05/26 03:33:18;;;;;;;7.07;1.58;;;18.20;63.10;;;;;;7369562;19;20019;-78
2022/05/26 03:41:15;;;;;;;11.02;1.77;;;18.10;63.30;;;;;;7391055;19;20457;-78
2022/05/26 03:43:51;;;;;;;7.03;1.63;;;18.00;63.30;;;;;;7366884;19;20034;-78
2022/05/26 03:46:19;;;;;;;8.77;1.77;;;17.90;63.40;;;;;;7366246;19;20014;-77
2022/05/26 03:48:50;;;;;;;4.40;1.40;;;18.00;63.30;;;;;;7367099;19;20085;-77
2022/05/26 03:51:18;;;;;;;5.63;1.48;;;17.80;63.70;;;;;;7367255;19;20010;-78
2022/05/26 03:53:49;;;;;;;3.80;1.20;;;17.70;63.60;;;;;;7371182;19;20090;-78
2022/05/26 03:56:18;;;;;;;4.85;1.13;;;17.80;63.70;;;;;;7402762;19;20066;-78
2022/05/26 03:58:47;;;;;;;5.03;1.35;;;18.00;63.40;;;;;;7381341;19;20031;-78
2022/05/26 04:01:16;;;;;;;5.05;1.20;;;18.00;63.10;;;;;;7367474;19;20021;-77
2022/05/26 04:03:44;;;;;;;5.47;1.25;;;18.10;62.70;;;;;;7365049;19;20022;-78
2022/05/26 04:06:13;;;;;;;8.00;1.50;;;18.10;62.30;;;;;;7364408;19;20102;-78
2022/05/26 04:08:42;;;;;;;5.57;1.13;;;18.10;62.30;;;;;;7367808;19;20018;-78
2022/05/26 04:11:13;;;;;;;5.68;1.17;;;18.20;62.00;;;;;;7389215;19;20019;-78
2022/05/26 04:13:42;;;;;;;6.50;1.40;;;18.20;61.80;;;;;;7365365;19;20023;-78
2022/05/26 04:16:10;;;;;;;4.57;1.10;;;18.30;61.60;;;;;;7368136;19;20027;-78
2022/05/26 04:18:39;;;;;;;5.75;1.45;;;18.30;61.60;;;;;;7376633;19;20014;-78
2022/05/26 04:21:10;;;;;;;8.23;1.55;;;18.30;61.80;;;;;;7375248;19;20022;-78
2022/05/26 04:23:39;;;;;;;5.53;1.07;;;18.30;61.90;;;;;;7372078;19;20023;-74
2022/05/26 04:26:09;;;;;;;6.28;1.40;;;18.30;62.00;;;;;;7397335;19;20026;-74
2022/05/26 04:28:41;;;;;;;4.67;1.40;;;18.30;62.30;;;;;;7376305;19;20395;-74
2022/05/26 04:31:09;;;;;;;9.98;1.70;;;18.30;62.50;;;;;;7374355;19;20022;-75
2022/05/26 04:33:38;;;;;;;7.22;1.55;;;18.30;62.60;;;;;;7373800;19;20086;-75
2022/05/26 04:36:08;;;;;;;8.35;1.23;;;18.30;62.70;;;;;;7375707;19;20033;-74
2022/05/26 04:38:37;;;;;;;4.20;1.25;;;18.20;62.90;;;;;;7376608;19;20102;-74
2022/05/26 04:41:08;;;;;;;4.45;1.20;;;18.10;63.20;;;;;;7396993;19;20015;-74
2022/05/26 04:43:40;;;;;;;7.78;1.70;;;18.00;63.40;;;;;;7371362;19;20327;-73
2022/05/26 04:46:08;;;;;;;8.52;1.60;;;18.10;63.60;;;;;;7374982;19;20086;-73
2022/05/26 04:48:37;;;;;;;7.93;1.67;;;18.10;63.60;;;;;;7375454;19;20020;-74
2022/05/26 04:51:06;;;;;;;5.35;1.27;;;18.10;63.60;;;;;;7375045;19;20017;-75
2022/05/26 04:53:35;;;;;;;5.88;1.48;;;18.10;63.50;;;;;;7370964;19;20014;-75
2022/05/26 04:56:03;;;;;;;5.85;1.40;;;18.20;63.70;;;;;;7395146;19;20022;-74
2022/05/26 04:58:32;;;;;;;6.72;1.27;;;18.20;63.50;;;;;;7374122;19;20082;-75
2022/05/26 05:01:14;;;;;;;7.43;2.00;;;18.20;63.50;;;;;;7372342;19;20518;-74
2022/05/26 05:03:43;;;;;;;7.57;1.35;;;18.30;63.40;;;;;;7373831;19;20015;-75
2022/05/26 05:06:12;;;;;;;7.05;1.50;;;18.30;63.20;;;;;;7373762;19;20082;-75
2022/05/26 05:08:40;;;;;;;4.57;1.38;;;18.30;63.20;;;;;;7373061;19;20045;-75
2022/05/26 05:11:10;;;;;;;6.13;1.55;;;18.40;63.20;;;;;;7394637;19;20022;-75
2022/05/26 05:13:39;;;;;;;3.53;1.50;;;18.40;63.20;;;;;;7372032;19;20102;-75
2022/05/26 05:16:15;;;;;;;6.53;1.55;;;18.50;63.20;;;;;;7372280;19;20011;-75
2022/05/26 05:18:44;;;;;;;14.63;1.85;;;18.40;63.00;;;;;;7373333;19;20647;-75
2022/05/26 05:21:16;;;;;;;6.95;1.35;;;18.50;63.00;;;;;;7373618;19;20037;-75
2022/05/26 05:23:50;;;;;;;4.05;1.40;;;18.50;62.70;;;;;;7371291;19;20057;-75
2022/05/26 05:26:23;;;;;;;4.82;1.50;;;18.40;62.80;;;;;;7394590;19;20058;-74
2022/05/26 05:28:57;;;;;;;6.85;1.40;;;18.40;62.70;;;;;;7370740;19;20015;-74
2022/05/26 05:31:32;;;;;;;4.72;1.27;;;18.30;63.10;;;;;;7371226;19;20439;-75
2022/05/26 05:34:04;;;;;;;4.03;1.30;;;18.40;63.70;;;;;;7371710;19;20023;-75
2022/05/26 05:36:36;;;;;;;7.65;1.30;;;18.40;62.70;;;;;;7373686;19;20014;-74
2022/05/26 05:39:06;;;;;;;6.38;1.23;;;18.30;62.80;;;;;;7370806;19;20074;-74
2022/05/26 05:41:36;;;;;;;6.65;1.60;;;18.10;62.90;;;;;;7369962;19;20035;-75
2022/05/26 05:44:06;;;;;;;4.90;1.27;;;18.20;63.20;;;;;;7394031;19;20015;-74
2022/05/26 05:46:53;;;;;;;8.35;1.40;;;18.00;63.30;;;;;;7371623;19;20023;-75
2022/05/26 05:49:22;;;;;;;6.28;1.48;;;18.00;63.60;;;;;;7371255;19;20007;-75
2022/05/26 05:51:52;;;;;;;5.95;1.20;;;18.20;63.60;;;;;;7372555;19;20029;-74
2022/05/26 05:54:22;;;;;;;3.80;1.20;;;18.30;63.50;;;;;;7370527;19;20038;-75
2022/05/26 05:56:51;;;;;;;10.35;1.65;;;18.40;63.20;;;;;;7370063;19;20097;-74
2022/05/26 05:59:20;;;;;;;4.68;1.52;;;18.50;63.80;;;;;;7394714;19;20822;-74
2022/05/26 06:01:51;;;;;;;7.95;1.42;;;18.50;62.50;;;;;;7373533;19;20011;-74
2022/05/26 06:04:20;;;;;;;2.65;0.73;;;18.60;62.50;;;;;;7373177;19;20018;-74
2022/05/26 06:06:49;;;;;;;3.35;1.00;;;18.70;62.20;;;;;;7372297;19;20129;-74
2022/05/26 06:09:20;;;;;;;5.10;1.20;;;18.80;62.00;;;;;;7373251;19;20014;-75
2022/05/26 06:11:49;;;;;;;6.82;1.55;;;18.80;61.90;;;;;;7371877;19;20515;-75
2022/05/26 06:14:19;;;;;;;3.65;1.00;;;18.70;61.70;;;;;;7392878;19;20035;-75
2022/05/26 06:16:50;;;;;;;4.28;1.10;;;18.60;61.90;;;;;;7370046;19;20429;-73
2022/05/26 06:19:19;;;;;;;;;;;18.50;62.00;;;;;;7371347;19;20019;-74
2022/05/26 06:21:47;;;;;;;7.40;1.33;;;18.70;62.10;;;;;;7372307;19;20373;-74
2022/05/26 06:24:22;;;;;;;5.72;1.20;;;18.70;61.80;;;;;;7370991;19;20007;-75
2022/05/26 06:26:51;;;;;;;4.10;1.17;;;18.70;61.50;;;;;;7369433;19;20078;-75
2022/05/26 06:37:28;;;;;;;9.73;1.35;;;18.50;61.80;;;;;;7370939;19;20018;-75
2022/05/26 06:39:57;;;;;;;6.75;1.33;;;18.50;61.50;;;;;;7370414;19;20041;-75
2022/05/26 06:42:26;;;;;;;2.55;0.82;;;18.40;61.50;;;;;;7370344;19;20307;-74
2022/05/26 06:44:58;;;;;;;4.00;1.33;;;18.40;61.70;;;;;;7369852;19;20057;-74
2022/05/26 06:47:30;;;;;;;4.47;1.08;;;18.50;62.20;;;;;;7387481;19;20014;-74
2022/05/26 06:49:59;;;;;;;2.60;0.77;;;18.60;61.40;;;;;;7368977;19;20036;-74
2022/05/26 06:52:28;;;;;;;4.38;0.73;;;18.60;61.00;;;;;;7367978;19;20013;-74
2022/05/26 06:54:58;;;;;;;2.75;0.80;;;18.70;61.10;;;;;;7370807;19;20007;-74
2022/05/26 06:57:27;;;;;;;1.87;0.67;;;18.40;61.30;;;;;;7372091;19;20123;-74
2022/05/26 06:59:57;;;;;;;1.83;0.60;;;18.40;61.00;;;;;;7371699;19;20456;-74
2022/05/26 07:02:29;;;;;;;1.65;0.70;;;18.40;62.00;;;;;;7389573;19;20094;-75
2022/05/26 07:04:58;;;;;;;1.15;0.70;;;18.60;61.00;;;;;;7371066;19;20641;-74
2022/05/26 07:07:27;;;;;;;3.13;0.75;;;18.50;61.00;;;;;;7369023;19;20307;-74
2022/05/26 07:09:57;;;;;;;4.32;0.73;;;18.60;60.80;;;;;;7369091;19;20454;-75
2022/05/26 07:12:26;;;;;;;2.00;0.50;;;18.70;60.40;;;;;;7371063;19;20102;-75
2022/05/26 07:14:55;;;;;;;0.82;0.40;;;18.90;60.20;;;;;;7369774;19;20023;-74
2022/05/26 07:17:24;;;;;;;2.85;0.65;;;18.70;60.00;;;;;;7390047;19;20085;-75
2022/05/26 07:19:55;;;;;;;1.10;0.43;;;18.80;59.80;;;;;;7368289;19;20039;-75
2022/05/26 07:22:24;;;;;;;2.92;0.68;;;19.00;59.60;;;;;;7369261;19;20379;-75
2022/05/26 07:24:53;;;;;;;1.15;0.40;;;19.10;59.00;;;;;;7368944;19;20099;-75
2022/05/26 07:27:22;;;;;;;1.90;0.60;;;18.90;58.80;;;;;;7369139;19;20494;-75
2022/05/26 07:29:51;;;;;;;3.00;0.85;;;18.90;58.80;;;;;;7371573;19;20018;-74
2022/05/26 07:32:20;;;;;;;1.15;0.40;;;19.00;59.00;;;;;;7391971;19;20465;-75
2022/05/26 07:34:48;;;;;;;4.32;0.60;;;19.10;59.30;;;;;;7368292;19;20470;-74
2022/05/26 07:42:42;;;;;;;2.35;0.50;;;18.70;61.90;;;;;;7366707;19;20015;-75
2022/05/26 07:45:12;;;;;;;2.85;0.57;;;18.80;62.40;;;;;;7368671;19;20022;-74
2022/05/26 07:47:41;;;;;;;1.65;0.55;;;18.70;62.30;;;;;;7370560;19;20031;-75
2022/05/26 07:50:19;;;;;;;1.73;0.30;;;18.60;62.60;;;;;;7389201;19;20017;-73
2022/05/26 07:52:51;;;;;;;2.58;0.60;;;18.70;62.60;;;;;;7367415;19;20015;-74
2022/05/26 07:55:21;;;;;;;0.60;0.40;;;18.90;63.10;;;;;;7369805;19;20015;-76
2022/05/26 07:57:50;;;;;;;1.45;0.60;;;19.00;62.60;;;;;;7368983;19;20519;-75
2022/05/26 08:00:20;;;;;;;1.27;0.50;;;19.20;62.30;;;;;;7366628;19;20021;-74
2022/05/26 08:02:49;;;;;;;2.55;0.65;;;19.10;61.60;;;;;;7369709;19;20104;-74
2022/05/26 08:05:18;;;;;;;2.22;0.70;;;18.70;64.40;;;;;;7390419;19;20044;-75
2022/05/26 08:07:46;;;;;;;6.25;0.90;;;18.40;65.20;;;;;;7368010;19;20397;-74
2022/05/26 08:10:18;;;;;;;3.78;0.90;;;18.40;66.40;;;;;;7367278;19;20041;-74
2022/05/26 08:12:47;;;;;;;2.85;0.90;;;18.30;67.20;;;;;;7368099;19;20340;-75
2022/05/26 08:15:16;;;;;;;3.42;0.90;;;18.10;67.20;;;;;;7366989;19;20078;-75
2022/05/26 08:17:48;;;;;;;3.67;0.90;;;18.20;67.50;;;;;;7366595;19;20086;-74
2022/05/26 08:20:17;;;;;;;14.82;9.07;;;18.20;68.00;;;;;;7390231;19;20074;-76
2022/05/26 08:22:46;;;;;;;21.75;13.60;;;18.00;66.80;;;;;;7368365;19;20774;-77
2022/05/26 08:25:17;;;;;;;22.27;13.20;;;18.20;68.10;;;;;;7362119;19;20047;-75
2022/05/26 08:27:46;;;;;;;9.85;5.00;;;18.30;67.40;;;;;;7365460;19;20481;-74
2022/05/26 08:30:15;;;;;;;3.22;1.55;;;18.50;66.10;;;;;;7369539;19;20018;-74
2022/05/26 08:32:44;;;;;;;2.28;1.00;;;18.60;65.00;;;;;;7369183;19;20038;-75
2022/05/26 08:35:14;;;;;;;2.05;0.93;;;18.50;63.80;;;;;;7387506;19;20036;-75
2022/05/26 08:37:42;;;;;;;3.08;1.00;;;18.60;63.40;;;;;;7366368;19;20098;-75
2022/05/26 08:40:26;;;;;;;4.05;1.08;;;18.70;63.50;;;;;;7367026;19;20106;-75
2022/05/26 08:42:55;;;;;;;7.13;0.93;;;18.80;63.70;;;;;;7368277;19;20015;-75
2022/05/26 08:45:24;;;;;;;1.80;1.25;;;19.10;63.10;;;;;;7365427;19;20011;-75
2022/05/26 08:47:53;;;;;;;3.13;1.80;;;19.20;62.20;;;;;;7366966;19;20028;-75
2022/05/26 08:50:27;;;;;;;4.30;0.98;;;19.40;62.00;;;;;;7389653;19;20023;-75
2022/05/26 08:53:03;;;;;;;5.65;1.00;;;19.50;60.90;;;;;;7367773;19;20046;-75
2022/05/26 08:55:38;;;;;;;0.95;0.70;;;19.60;59.20;;;;;;7366913;19;20015;-75
2022/05/26 08:58:12;;;;;;;1.95;0.80;;;19.50;59.50;;;;;;7366931;19;20010;-74
2022/05/26 09:00:43;;;;;;;2.25;0.98;;;19.50;59.10;;;;;;7367153;19;20030;-75
2022/05/26 09:03:26;;;;;;;2.93;1.00;;;19.60;59.50;;;;;;7373172;19;20110;-75
2022/05/26 09:06:03;;;;;;;3.25;0.98;;;19.70;58.20;;;;;;7370036;19;20251;-74
2022/05/26 09:14:00;;;;;;;2.17;0.80;;;19.90;58.10;;;;;;7374486;19;20015;-75
2022/05/26 09:16:30;;;;;;;3.60;0.93;;;20.00;58.30;;;;;;7374146;19;20090;-73
2022/05/26 09:19:15;;;;;;;358.58;237.73;;;20.10;57.70;;;;;;7374028;19;20014;-78
2022/05/26 09:21:44;;;;;;;1.85;1.20;;;20.10;57.80;;;;;;7371785;19;20018;-73
2022/05/26 09:24:26;;;;;;;4.43;0.95;;;20.20;57.30;;;;;;7373884;19;20130;-74
2022/05/26 09:27:01;;;;;;;1.98;0.73;;;20.10;57.10;;;;;;7375784;19;20426;-76
2022/05/26 09:29:33;;;;;;;1.52;0.65;;;20.00;56.80;;;;;;7378122;19;20045;-75
2022/05/26 09:32:04;;;;;;;1.77;0.63;;;20.00;57.10;;;;;;7396165;19;20459;-75
2022/05/26 09:34:34;;;;;;;2.47;0.70;;;20.00;57.40;;;;;;7371639;19;20026;-75
2022/05/26 09:37:07;;;;;;;1.90;0.60;;;20.20;57.60;;;;;;7375195;19;20412;-73
2022/05/26 09:39:39;;;;;;;1.48;0.50;;;20.30;57.90;;;;;;7369780;19;20262;-75
2022/05/26 09:42:29;;;;;;;3.30;1.00;;;20.40;57.40;;;;;;7373113;19;20134;-76
2022/05/26 09:45:00;;;;;;;1.48;0.40;;;20.50;57.30;;;;;;7373949;19;20028;-74
2022/05/26 09:47:31;;;;;;;;;;;20.60;56.00;;;;;;7386101;19;20022;-75
2022/05/26 09:50:03;;;;;;;2.88;0.70;;;20.60;55.90;;;;;;7392199;19;19918;-75
2022/05/26 09:52:42;;;;;;;1.63;0.55;;;20.60;56.00;;;;;;7370032;19;20089;-74
2022/05/26 09:55:21;;;;;;;1.30;0.60;;;20.60;55.70;;;;;;7367469;19;20015;-74
2022/05/26 09:58:04;;;;;;;1.65;0.60;;;20.60;56.20;;;;;;7363974;19;20027;-76
2022/05/26 10:00:39;;;;;;;3.20;0.70;;;20.40;56.00;;;;;;7361012;19;20431;-74
2022/05/26 10:03:17;;;;;;;2.42;0.55;;;20.50;56.50;;;;;;7372081;19;20018;-74
2022/05/26 10:05:50;;;;;;;4.07;0.60;;;20.40;56.40;;;;;;7316309;19;20317;-75
2022/05/26 10:08:28;;;;;;;2.60;0.70;;;20.40;56.50;;;;;;7391442;19;20521;-74
2022/05/26 10:10:59;;;;;;;7.53;1.13;;;20.40;56.80;;;;;;7372909;19;20014;-74
2022/05/26 10:13:53;;;;;;;2.50;0.65;;;20.40;56.80;;;;;;7369392;19;20022;-74
2022/05/26 10:16:28;;;;;;;3.20;0.75;;;20.30;56.60;;;;;;7370365;19;20074;-73
2022/05/26 10:19:10;;;;;;;3.38;0.70;;;20.30;56.60;;;;;;7350403;19;20018;-76
2022/05/26 10:24:34;;;;;;;1.35;0.68;;;20.30;56.80;;;;;;7346747;19;20553;-77
2022/05/26 10:27:24;;;;;;;;;;;;;;;;;;;;;
2022/05/26 10:30:14;;;;;;;1.40;0.65;;;20.40;57.00;;;;;;7367314;19;20054;-75
2022/05/26 10:32:52;;;;;;;1.00;0.60;;;20.60;56.90;;;;;;7368835;19;20015;-77
2022/05/26 10:35:26;;;;;;;2.05;0.70;;;20.70;55.90;;;;;;7382695;19;20021;-77
2022/05/26 10:38:16;;;;;;;1.45;0.52;;;20.80;55.50;;;;;;7360449;19;20018;-76
2022/05/26 10:40:54;;;;;;;2.55;0.70;;;20.90;55.30;;;;;;7367308;19;20612;-76
2022/05/26 10:43:27;;;;;;;1.38;0.70;;;20.90;55.40;;;;;;7363048;19;20018;-75
2022/05/26 10:46:06;;;;;;;5.15;1.20;;;21.00;55.30;;;;;;7348062;19;20961;-75
2022/05/26 10:48:42;;;;;;;2.42;0.75;;;21.00;55.20;;;;;;7367471;19;20122;-76
2022/05/26 10:51:15;;;;;;;1.73;0.93;;;20.90;54.80;;;;;;7366941;19;20040;-76
2022/05/26 10:57:04;;;;;;;1.70;0.60;;;20.80;55.30;;;;;;7365764;19;20042;-77
2022/05/26 10:59:39;;;;;;;1.85;0.68;;;20.90;54.40;;;;;;7367443;19;20405;-76
2022/05/26 11:02:17;;;;;;;3.47;1.02;;;20.90;55.90;;;;;;7386210;19;20021;-76
2022/05/26 11:04:50;;;;;;;1.67;0.90;;;21.00;56.30;;;;;;7309632;19;20415;-76
2022/05/26 11:07:23;;;;;;;2.70;0.95;;;21.20;56.20;;;;;;7358373;19;20086;-76
2022/05/26 11:09:56;;;;;;;3.55;1.10;;;21.20;55.90;;;;;;7358927;19;20042;-77
2022/05/26 11:12:32;;;;;;;3.05;0.88;;;21.10;55.70;;;;;;7353804;19;20053;-76
2022/05/26 11:17:56;;;;;;;2.50;1.20;;;21.10;56.20;;;;;;7369069;19;20018;-76
2022/05/26 11:20:28;;;;;;;4.28;0.85;;;21.30;55.90;;;;;;7379585;19;20025;-77
2022/05/26 11:23:03;;;;;;;3.13;1.10;;;21.30;55.50;;;;;;7363452;19;20036;-79
2022/05/26 11:25:34;;;;;;;1.83;0.80;;;21.40;54.90;;;;;;7219953;19;2769330;-77
2022/05/26 11:28:09;;;;;;;1.95;0.60;;;21.50;53.30;;;;;;7322272;19;20594;-76
2022/05/26 11:36:21;;;;;;;1.08;0.60;;;21.30;52.20;;;;;;7368884;19;20017;-77
2022/05/26 11:38:54;;;;;;;1.52;0.65;;;21.40;53.10;;;;;;7368301;19;20091;-76
2022/05/26 11:41:31;;;;;;;1.42;0.80;;;21.50;53.30;;;;;;7389193;19;20023;-77
2022/05/26 11:44:05;;;;;;;1.58;0.60;;;21.60;53.30;;;;;;7369477;19;20015;-76
2022/05/26 11:46:56;;;;;;;146.57;90.07;;;21.80;53.10;;;;;;7367088;19;20442;-76
2022/05/26 11:49:54;;;;;;;2.53;1.48;;;21.80;52.30;;;;;;7369413;19;20368;-76
2022/05/26 11:52:51;;;;;;;3.55;1.05;;;21.90;52.50;;;;;;7367994;19;20087;-77
2022/05/26 11:55:27;;;;;;;1.20;0.77;;;21.80;53.00;;;;;;7366530;19;20085;-75
2022/05/26 11:57:57;;;;;;;1.17;0.70;;;21.80;53.10;;;;;;7365045;19;20478;-75
2022/05/26 12:00:40;;;;;;;1.15;0.50;;;21.70;52.20;;;;;;7363698;19;20363;-76
2022/05/26 12:03:31;;;;;;;1.30;0.70;;;21.60;52.40;;;;;;7364414;19;20473;-75
2022/05/26 12:06:13;;;;;;;3.33;0.80;;;21.60;53.40;;;;;;7364707;19;20082;-76
2022/05/26 12:09:02;;;;;;;2.67;0.80;;;21.80;53.40;;;;;;7362939;19;20476;-77
2022/05/26 12:11:58;;;;;;;2.15;0.75;;;22.00;51.90;;;;;;7360478;19;20590;-76
2022/05/26 12:14:33;;;;;;;3.47;0.65;;;22.00;51.70;;;;;;7389629;19;20019;-76
2022/05/26 12:17:34;;;;;;;1.65;0.70;;;22.10;52.00;;;;;;7364717;19;20043;-76
2022/05/26 12:20:07;;;;;;;1.50;0.60;;;22.00;52.30;;;;;;7367027;19;20143;-74
2022/05/26 12:22:38;;;;;;;3.80;0.98;;;22.00;52.30;;;;;;7366434;19;20070;-77
2022/05/26 12:25:24;;;;;;;2.03;0.63;;;21.80;53.20;;;;;;7365707;19;20021;-74
2022/05/26 12:28:25;;;;;;;0.63;0.55;;;21.90;53.40;;;;;;7365496;19;20162;-75
2022/05/26 12:31:11;;;;;;;2.30;0.80;;;22.10;53.00;;;;;;7369232;19;20018;-76
2022/05/26 12:34:13;;;;;;;0.98;0.60;;;22.20;52.70;;;;;;7366683;19;20044;-76
2022/05/26 12:37:02;;;;;;;1.05;0.50;;;22.30;52.20;;;;;;7368240;19;20074;-75
2022/05/26 12:40:00;;;;;;;2.78;0.90;;;22.20;51.80;;;;;;7374955;19;20182;-75
2022/05/26 12:43:05;;;;;;;1.67;0.75;;;22.30;51.30;;;;;;7374187;19;20014;-75
2022/05/26 12:45:50;;;;;;;1.70;0.60;;;22.30;51.50;;;;;;7373810;19;20010;-75
2022/05/26 12:48:55;;;;;;;2.20;0.60;;;22.40;51.20;;;;;;7375721;19;20025;-75
2022/05/26 12:51:24;;;;;;;2.20;0.65;;;22.50;51.40;;;;;;7375799;19;20085;-75
2022/05/26 12:53:56;;;;;;;2.05;0.50;;;22.60;50.60;;;;;;7374323;19;20018;-75
2022/05/26 12:56:31;;;;;;;1.92;0.60;;;22.60;51.10;;;;;;7393921;19;20077;-75
2022/05/26 12:59:05;;;;;;;3.35;0.60;;;22.50;51.20;;;;;;7372813;19;20018;-75
2022/05/26 13:01:35;;;;;;;1.52;0.82;;;22.70;51.10;;;;;;7374799;19;20017;-76
2022/05/26 13:04:08;;;;;;;3.03;0.70;;;22.80;51.20;;;;;;7374378;19;20764;-75
2022/05/26 13:06:41;;;;;;;1.77;0.63;;;22.90;50.50;;;;;;7376160;19;20107;-76
2022/05/26 13:09:16;;;;;;;3.10;0.80;;;23.00;50.50;;;;;;7374952;19;20055;-75
2022/05/26 13:11:49;;;;;;;2.55;0.80;;;23.00;51.00;;;;;;7372287;19;20054;-76
2022/05/26 13:14:32;;;;;;;1.55;0.70;;;23.00;50.60;;;;;;7396174;19;20010;-76
2022/05/26 13:17:04;;;;;;;1.63;0.80;;;23.10;50.60;;;;;;7374299;19;20011;-76
2022/05/26 13:19:32;;;;;;;;;;;23.20;50.20;;;;;;7369475;19;20082;-76
2022/05/26 13:22:01;;;;;;;2.65;0.70;;;23.20;49.90;;;;;;7373106;19;20301;-76
2022/05/26 13:24:35;;;;;;;2.00;0.60;;;23.20;49.30;;;;;;7374834;19;20098;-76
2022/05/26 13:27:07;;;;;;;0.90;0.47;;;23.20;49.80;;;;;;7374008;19;20998;-75
2022/05/26 13:29:43;;;;;;;0.55;0.50;;;23.10;50.40;;;;;;7374681;19;20082;-77
2022/05/26 13:34:58;;;;;;;2.05;0.70;;;23.10;50.00;;;;;;7374163;19;20068;-75
2022/05/26 13:37:29;;;;;;;1.13;0.57;;;23.10;50.60;;;;;;7372726;19;20031;-75
2022/05/26 13:40:08;;;;;;;11.30;0.70;;;23.20;49.70;;;;;;7373653;19;20073;-76
2022/05/26 13:42:39;;;;;;;1.02;0.60;;;23.40;50.30;;;;;;7373249;19;20089;-75
2022/05/26 13:45:15;;;;;;;2.10;0.82;;;23.50;48.90;;;;;;7372977;19;20485;-75
2022/05/26 13:47:44;;;;;;;9.88;6.28;;;23.70;49.20;;;;;;7373279;19;20007;-79
2022/05/26 13:50:15;;;;;;;5.43;2.83;;;23.60;49.20;;;;;;7400115;19;20503;-79
2022/05/26 13:52:44;;;;;;;;;;;23.60;49.00;;;;;;7380533;19;20032;-80
2022/05/26 13:55:19;;;;;;;;;;;23.70;49.30;;;;;;7374449;19;19964;-80
2022/05/26 13:57:49;;;;;;;;;;;23.70;49.30;;;;;;7375725;19;19911;-80
2022/05/26 14:00:25;;;;;;;;;;;23.60;48.50;;;;;;7377830;19;20270;-80
2022/05/26 14:02:55;;;;;;;;;;;23.70;49.00;;;;;;7381893;19;19967;-80
2022/05/26 14:05:24;;;;;;;;;;;23.80;49.00;;;;;;7401970;19;19922;-80
2022/05/26 14:08:02;;;;;;;;;;;23.90;48.60;;;;;;7379685;19;20229;-80
2022/05/26 14:10:32;;;;;;;;;;;23.90;48.40;;;;;;7378145;19;19926;-80